sensor_id;sensor_type;location;lat;lon;timestamp;P1;durP1;ratioP1;P2;durP2;ratioP2
25481;SDS011;13395;50.752;4.268;2022-12-18T00:01:22;111.97;;;43.72;;
25481;SDS011;13395;50.752;4.268;2022-12-18T00:03:49;98.85;;;41.88;;
25481;SDS011;13395;50.752;4.268;2022-12-18T00:06:16;108.03;;;44.30;;
25481;SDS011;13395;50.752;4.268;2022-12-18T00:08:42;107.90;;;42.38;;
25481;SDS011;13395;50.752;4.268;2022-12-18T00:11:10;117.88;;;44.10;;
25481;SDS011;13395;50.752;4.268;2022-12-18T00:13:38;99.57;;;42.92;;
25481;SDS011;13395;50.752;4.268;2022-12-18T00:16:04;111.53;;;42.42;;
25481;SDS011;13395;50.752;4.268;2022-12-18T00:18:34;104.85;;;42.75;;
25481;SDS011;13395;50.752;4.268;2022-12-18T00:21:00;106.25;;;42.95;;
25481;SDS011;13395;50.752;4.268;2022-12-18T00:23:27;99.05;;;42.30;;
25481;SDS011;13395;50.752;4.268;2022-12-18T00:25:53;118.35;;;45.20;;
25481;SDS011;13395;50.752;4.268;2022-12-18T00:28:19;103.93;;;42.83;;
25481;SDS011;13395;50.752;4.268;2022-12-18T00:30:45;108.65;;;42.72;;
25481;SDS011;13395;50.752;4.268;2022-12-18T00:33:10;101.88;;;42.05;;
25481;SDS011;13395;50.752;4.268;2022-12-18T00:35:36;113.55;;;44.67;;
25481;SDS011;13395;50.752;4.268;2022-12-18T00:38:02;105.90;;;44.40;;
25481;SDS011;13395;50.752;4.268;2022-12-18T00:40:27;104.53;;;43.03;;
25481;SDS011;13395;50.752;4.268;2022-12-18T00:42:53;100.50;;;41.05;;
25481;SDS011;13395;50.752;4.268;2022-12-18T00:45:25;111.05;;;45.70;;
25481;SDS011;13395;50.752;4.268;2022-12-18T00:47:52;98.00;;;40.75;;
25481;SDS011;13395;50.752;4.268;2022-12-18T00:50:19;105.43;;;42.75;;
25481;SDS011;13395;50.752;4.268;2022-12-18T00:52:44;108.35;;;44.95;;
25481;SDS011;13395;50.752;4.268;2022-12-18T00:55:10;112.90;;;44.40;;
25481;SDS011;13395;50.752;4.268;2022-12-18T00:57:36;112.88;;;46.08;;
25481;SDS011;13395;50.752;4.268;2022-12-18T01:00:03;119.45;;;45.58;;
25481;SDS011;13395;50.752;4.268;2022-12-18T01:02:30;112.00;;;43.35;;
25481;SDS011;13395;50.752;4.268;2022-12-18T01:04:56;104.65;;;43.38;;
25481;SDS011;13395;50.752;4.268;2022-12-18T01:07:22;106.13;;;43.40;;
25481;SDS011;13395;50.752;4.268;2022-12-18T01:09:47;98.88;;;42.25;;
25481;SDS011;13395;50.752;4.268;2022-12-18T01:12:13;99.20;;;41.30;;
25481;SDS011;13395;50.752;4.268;2022-12-18T01:14:38;102.65;;;40.28;;
25481;SDS011;13395;50.752;4.268;2022-12-18T01:17:04;80.40;;;32.65;;
25481;SDS011;13395;50.752;4.268;2022-12-18T01:19:30;91.95;;;35.40;;
25481;SDS011;13395;50.752;4.268;2022-12-18T01:21:55;82.28;;;34.55;;
25481;SDS011;13395;50.752;4.268;2022-12-18T01:24:21;79.50;;;32.40;;
25481;SDS011;13395;50.752;4.268;2022-12-18T01:26:47;66.07;;;30.85;;
25481;SDS011;13395;50.752;4.268;2022-12-18T01:29:12;72.40;;;31.65;;
25481;SDS011;13395;50.752;4.268;2022-12-18T01:31:38;75.03;;;31.38;;
25481;SDS011;13395;50.752;4.268;2022-12-18T01:34:04;70.82;;;29.02;;
25481;SDS011;13395;50.752;4.268;2022-12-18T01:36:31;65.05;;;27.40;;
25481;SDS011;13395;50.752;4.268;2022-12-18T01:39:03;66.65;;;26.75;;
25481;SDS011;13395;50.752;4.268;2022-12-18T01:41:30;68.97;;;26.80;;
25481;SDS011;13395;50.752;4.268;2022-12-18T01:49:58;58.10;;;27.15;;
25481;SDS011;13395;50.752;4.268;2022-12-18T01:52:28;55.65;;;24.52;;
25481;SDS011;13395;50.752;4.268;2022-12-18T01:54:55;58.25;;;23.95;;
25481;SDS011;13395;50.752;4.268;2022-12-18T01:57:22;60.30;;;24.80;;
25481;SDS011;13395;50.752;4.268;2022-12-18T01:59:50;59.88;;;24.88;;
25481;SDS011;13395;50.752;4.268;2022-12-18T02:02:18;62.42;;;24.60;;
25481;SDS011;13395;50.752;4.268;2022-12-18T02:04:45;54.50;;;23.85;;
25481;SDS011;13395;50.752;4.268;2022-12-18T02:09:59;55.88;;;22.50;;
25481;SDS011;13395;50.752;4.268;2022-12-18T02:15:35;46.40;;;23.75;;
25481;SDS011;13395;50.752;4.268;2022-12-18T02:18:10;47.63;;;22.33;;
25481;SDS011;13395;50.752;4.268;2022-12-18T02:20:54;62.20;;;25.85;;
25481;SDS011;13395;50.752;4.268;2022-12-18T02:28:42;56.80;;;24.50;;
25481;SDS011;13395;50.752;4.268;2022-12-18T02:31:17;57.70;;;26.52;;
25481;SDS011;13395;50.752;4.268;2022-12-18T02:33:47;58.60;;;26.02;;
25481;SDS011;13395;50.752;4.268;2022-12-18T02:36:16;61.63;;;26.17;;
25481;SDS011;13395;50.752;4.268;2022-12-18T02:38:43;61.80;;;24.98;;
25481;SDS011;13395;50.752;4.268;2022-12-18T02:41:11;53.30;;;24.58;;
25481;SDS011;13395;50.752;4.268;2022-12-18T02:43:38;60.85;;;27.30;;
25481;SDS011;13395;50.752;4.268;2022-12-18T02:48:50;64.35;;;28.17;;
25481;SDS011;13395;50.752;4.268;2022-12-18T02:51:30;72.53;;;30.10;;
25481;SDS011;13395;50.752;4.268;2022-12-18T02:54:16;68.72;;;28.33;;
25481;SDS011;13395;50.752;4.268;2022-12-18T02:56:51;95.30;;;35.70;;
25481;SDS011;13395;50.752;4.268;2022-12-18T02:59:23;99.47;;;40.40;;
25481;SDS011;13395;50.752;4.268;2022-12-18T03:07:55;74.38;;;30.65;;
25481;SDS011;13395;50.752;4.268;2022-12-18T03:10:27;86.32;;;33.53;;
25481;SDS011;13395;50.752;4.268;2022-12-18T03:13:00;76.53;;;32.15;;
25481;SDS011;13395;50.752;4.268;2022-12-18T03:18:19;71.20;;;29.38;;
25481;SDS011;13395;50.752;4.268;2022-12-18T03:20:52;73.03;;;30.13;;
25481;SDS011;13395;50.752;4.268;2022-12-18T03:23:23;65.15;;;27.27;;
25481;SDS011;13395;50.752;4.268;2022-12-18T03:25:52;64.63;;;27.80;;
25481;SDS011;13395;50.752;4.268;2022-12-18T03:28:22;66.03;;;27.48;;
25481;SDS011;13395;50.752;4.268;2022-12-18T03:30:49;69.68;;;28.17;;
25481;SDS011;13395;50.752;4.268;2022-12-18T03:33:25;58.55;;;25.38;;
25481;SDS011;13395;50.752;4.268;2022-12-18T03:38:41;56.13;;;26.40;;
25481;SDS011;13395;50.752;4.268;2022-12-18T03:48:59;67.35;;;26.23;;
25481;SDS011;13395;50.752;4.268;2022-12-18T03:51:35;61.40;;;26.60;;
25481;SDS011;13395;50.752;4.268;2022-12-18T03:54:07;63.90;;;25.08;;
25481;SDS011;13395;50.752;4.268;2022-12-18T03:56:40;54.17;;;24.45;;
25481;SDS011;13395;50.752;4.268;2022-12-18T03:59:11;54.50;;;23.73;;
25481;SDS011;13395;50.752;4.268;2022-12-18T04:01:39;59.83;;;24.85;;
25481;SDS011;13395;50.752;4.268;2022-12-18T04:04:08;72.15;;;27.23;;
25481;SDS011;13395;50.752;4.268;2022-12-18T04:06:36;66.32;;;25.42;;
25481;SDS011;13395;50.752;4.268;2022-12-18T04:09:03;55.15;;;25.00;;
25481;SDS011;13395;50.752;4.268;2022-12-18T04:11:29;55.20;;;22.20;;
25481;SDS011;13395;50.752;4.268;2022-12-18T04:13:55;46.03;;;20.75;;
25481;SDS011;13395;50.752;4.268;2022-12-18T04:16:22;43.20;;;19.90;;
25481;SDS011;13395;50.752;4.268;2022-12-18T04:18:49;50.40;;;22.30;;
25481;SDS011;13395;50.752;4.268;2022-12-18T04:21:14;36.10;;;18.92;;
25481;SDS011;13395;50.752;4.268;2022-12-18T04:23:40;38.78;;;18.92;;
25481;SDS011;13395;50.752;4.268;2022-12-18T04:26:06;48.95;;;18.73;;
25481;SDS011;13395;50.752;4.268;2022-12-18T04:28:31;42.40;;;18.30;;
25481;SDS011;13395;50.752;4.268;2022-12-18T04:30:57;44.72;;;18.73;;
25481;SDS011;13395;50.752;4.268;2022-12-18T04:33:22;52.70;;;22.50;;
25481;SDS011;13395;50.752;4.268;2022-12-18T04:35:48;50.75;;;22.55;;
25481;SDS011;13395;50.752;4.268;2022-12-18T04:38:14;53.17;;;23.30;;
25481;SDS011;13395;50.752;4.268;2022-12-18T04:40:39;57.70;;;24.83;;
25481;SDS011;13395;50.752;4.268;2022-12-18T04:43:05;60.22;;;23.77;;
25481;SDS011;13395;50.752;4.268;2022-12-18T04:45:31;46.00;;;20.58;;
25481;SDS011;13395;50.752;4.268;2022-12-18T04:47:59;52.55;;;21.48;;
25481;SDS011;13395;50.752;4.268;2022-12-18T04:50:25;47.72;;;19.25;;
25481;SDS011;13395;50.752;4.268;2022-12-18T04:52:51;46.38;;;20.48;;
25481;SDS011;13395;50.752;4.268;2022-12-18T04:55:17;44.08;;;19.30;;
25481;SDS011;13395;50.752;4.268;2022-12-18T04:57:42;54.17;;;21.63;;
25481;SDS011;13395;50.752;4.268;2022-12-18T05:00:08;51.28;;;21.50;;
25481;SDS011;13395;50.752;4.268;2022-12-18T05:02:34;57.25;;;22.02;;
25481;SDS011;13395;50.752;4.268;2022-12-18T05:05:00;47.40;;;20.30;;
25481;SDS011;13395;50.752;4.268;2022-12-18T05:07:26;42.67;;;20.25;;
25481;SDS011;13395;50.752;4.268;2022-12-18T05:09:51;48.22;;;20.63;;
25481;SDS011;13395;50.752;4.268;2022-12-18T05:12:17;60.17;;;24.48;;
25481;SDS011;13395;50.752;4.268;2022-12-18T05:14:42;59.83;;;24.60;;
25481;SDS011;13395;50.752;4.268;2022-12-18T05:17:08;52.03;;;20.85;;
25481;SDS011;13395;50.752;4.268;2022-12-18T05:19:34;48.78;;;20.92;;
25481;SDS011;13395;50.752;4.268;2022-12-18T05:21:59;42.90;;;18.33;;
25481;SDS011;13395;50.752;4.268;2022-12-18T05:24:26;40.53;;;19.23;;
25481;SDS011;13395;50.752;4.268;2022-12-18T05:26:52;48.85;;;19.17;;
25481;SDS011;13395;50.752;4.268;2022-12-18T05:29:17;37.13;;;18.27;;
25481;SDS011;13395;50.752;4.268;2022-12-18T05:31:43;44.05;;;19.40;;
25481;SDS011;13395;50.752;4.268;2022-12-18T05:34:08;46.28;;;21.08;;
25481;SDS011;13395;50.752;4.268;2022-12-18T05:36:34;38.35;;;19.05;;
25481;SDS011;13395;50.752;4.268;2022-12-18T05:39:00;52.33;;;20.77;;
25481;SDS011;13395;50.752;4.268;2022-12-18T05:41:26;45.35;;;20.30;;
25481;SDS011;13395;50.752;4.268;2022-12-18T05:43:51;37.40;;;19.63;;
25481;SDS011;13395;50.752;4.268;2022-12-18T05:46:17;42.45;;;18.30;;
25481;SDS011;13395;50.752;4.268;2022-12-18T05:48:43;39.33;;;19.92;;
25481;SDS011;13395;50.752;4.268;2022-12-18T05:51:10;44.28;;;19.75;;
25481;SDS011;13395;50.752;4.268;2022-12-18T05:53:39;44.30;;;20.60;;
25481;SDS011;13395;50.752;4.268;2022-12-18T05:56:06;45.35;;;21.48;;
25481;SDS011;13395;50.752;4.268;2022-12-18T05:58:35;42.03;;;19.15;;
25481;SDS011;13395;50.752;4.268;2022-12-18T06:01:11;40.45;;;18.35;;
25481;SDS011;13395;50.752;4.268;2022-12-18T06:03:41;38.17;;;19.08;;
25481;SDS011;13395;50.752;4.268;2022-12-18T06:06:13;49.33;;;22.30;;
25481;SDS011;13395;50.752;4.268;2022-12-18T06:08:47;54.20;;;24.27;;
25481;SDS011;13395;50.752;4.268;2022-12-18T06:11:16;36.38;;;19.13;;
25481;SDS011;13395;50.752;4.268;2022-12-18T06:13:43;38.25;;;19.52;;
25481;SDS011;13395;50.752;4.268;2022-12-18T06:16:09;41.35;;;17.95;;
25481;SDS011;13395;50.752;4.268;2022-12-18T06:18:35;39.80;;;18.67;;
25481;SDS011;13395;50.752;4.268;2022-12-18T06:21:01;41.03;;;18.13;;
25481;SDS011;13395;50.752;4.268;2022-12-18T06:23:27;34.30;;;17.75;;
25481;SDS011;13395;50.752;4.268;2022-12-18T06:25:53;38.78;;;17.83;;
25481;SDS011;13395;50.752;4.268;2022-12-18T06:28:18;41.70;;;18.48;;
25481;SDS011;13395;50.752;4.268;2022-12-18T06:30:45;48.20;;;19.67;;
25481;SDS011;13395;50.752;4.268;2022-12-18T06:33:11;46.60;;;18.90;;
25481;SDS011;13395;50.752;4.268;2022-12-18T06:35:37;46.35;;;19.52;;
25481;SDS011;13395;50.752;4.268;2022-12-18T06:38:03;42.80;;;19.00;;
25481;SDS011;13395;50.752;4.268;2022-12-18T06:40:29;33.75;;;15.70;;
25481;SDS011;13395;50.752;4.268;2022-12-18T06:42:54;38.88;;;17.67;;
25481;SDS011;13395;50.752;4.268;2022-12-18T06:45:20;36.83;;;17.20;;
25481;SDS011;13395;50.752;4.268;2022-12-18T06:47:46;43.05;;;19.27;;
25481;SDS011;13395;50.752;4.268;2022-12-18T06:50:12;42.08;;;17.85;;
25481;SDS011;13395;50.752;4.268;2022-12-18T06:52:38;30.23;;;13.80;;
25481;SDS011;13395;50.752;4.268;2022-12-18T06:55:05;33.38;;;15.90;;
25481;SDS011;13395;50.752;4.268;2022-12-18T06:57:33;37.17;;;15.15;;
25481;SDS011;13395;50.752;4.268;2022-12-18T06:59:58;27.77;;;13.40;;
25481;SDS011;13395;50.752;4.268;2022-12-18T07:02:24;39.97;;;15.57;;
25481;SDS011;13395;50.752;4.268;2022-12-18T07:04:50;31.40;;;15.55;;
25481;SDS011;13395;50.752;4.268;2022-12-18T07:07:15;28.13;;;13.52;;
25481;SDS011;13395;50.752;4.268;2022-12-18T07:09:41;34.65;;;14.05;;
25481;SDS011;13395;50.752;4.268;2022-12-18T07:12:07;27.02;;;12.68;;
25481;SDS011;13395;50.752;4.268;2022-12-18T07:14:33;30.15;;;12.63;;
25481;SDS011;13395;50.752;4.268;2022-12-18T07:16:58;22.83;;;11.43;;
25481;SDS011;13395;50.752;4.268;2022-12-18T07:19:24;30.40;;;12.15;;
25481;SDS011;13395;50.752;4.268;2022-12-18T07:21:50;29.83;;;11.85;;
25481;SDS011;13395;50.752;4.268;2022-12-18T07:24:16;30.23;;;13.32;;
25481;SDS011;13395;50.752;4.268;2022-12-18T07:26:42;29.75;;;13.50;;
25481;SDS011;13395;50.752;4.268;2022-12-18T07:29:07;28.10;;;14.43;;
25481;SDS011;13395;50.752;4.268;2022-12-18T07:31:33;26.27;;;12.60;;
25481;SDS011;13395;50.752;4.268;2022-12-18T07:33:58;35.63;;;15.15;;
25481;SDS011;13395;50.752;4.268;2022-12-18T07:36:24;39.40;;;17.98;;
25481;SDS011;13395;50.752;4.268;2022-12-18T07:38:50;41.13;;;17.17;;
25481;SDS011;13395;50.752;4.268;2022-12-18T07:41:17;33.25;;;14.43;;
25481;SDS011;13395;50.752;4.268;2022-12-18T07:43:43;36.85;;;15.93;;
25481;SDS011;13395;50.752;4.268;2022-12-18T07:46:09;32.83;;;15.35;;
25481;SDS011;13395;50.752;4.268;2022-12-18T07:48:38;38.15;;;14.35;;
25481;SDS011;13395;50.752;4.268;2022-12-18T07:51:05;35.78;;;16.73;;
25481;SDS011;13395;50.752;4.268;2022-12-18T07:53:32;37.45;;;14.93;;
25481;SDS011;13395;50.752;4.268;2022-12-18T07:55:59;34.88;;;15.90;;
25481;SDS011;13395;50.752;4.268;2022-12-18T07:58:27;36.97;;;15.25;;
25481;SDS011;13395;50.752;4.268;2022-12-18T08:00:53;31.77;;;14.73;;
25481;SDS011;13395;50.752;4.268;2022-12-18T08:03:19;31.08;;;15.43;;
25481;SDS011;13395;50.752;4.268;2022-12-18T08:05:45;33.90;;;15.60;;
25481;SDS011;13395;50.752;4.268;2022-12-18T08:08:11;42.13;;;15.23;;
25481;SDS011;13395;50.752;4.268;2022-12-18T08:10:37;29.27;;;15.02;;
25481;SDS011;13395;50.752;4.268;2022-12-18T08:13:03;31.17;;;14.32;;
25481;SDS011;13395;50.752;4.268;2022-12-18T08:15:28;32.38;;;14.68;;
25481;SDS011;13395;50.752;4.268;2022-12-18T08:17:57;28.33;;;13.85;;
25481;SDS011;13395;50.752;4.268;2022-12-18T08:20:22;25.92;;;13.43;;
25481;SDS011;13395;50.752;4.268;2022-12-18T08:22:48;32.58;;;14.50;;
25481;SDS011;13395;50.752;4.268;2022-12-18T08:25:14;31.40;;;14.30;;
25481;SDS011;13395;50.752;4.268;2022-12-18T08:27:39;35.13;;;13.50;;
25481;SDS011;13395;50.752;4.268;2022-12-18T08:30:05;29.38;;;13.85;;
25481;SDS011;13395;50.752;4.268;2022-12-18T08:32:31;32.75;;;13.73;;
25481;SDS011;13395;50.752;4.268;2022-12-18T08:34:58;25.75;;;13.05;;
25481;SDS011;13395;50.752;4.268;2022-12-18T08:37:23;23.80;;;11.88;;
25481;SDS011;13395;50.752;4.268;2022-12-18T08:39:49;21.58;;;11.98;;
25481;SDS011;13395;50.752;4.268;2022-12-18T08:42:15;22.27;;;11.90;;
25481;SDS011;13395;50.752;4.268;2022-12-18T08:44:59;29.08;;;12.13;;
25481;SDS011;13395;50.752;4.268;2022-12-18T08:47:25;32.08;;;12.50;;
25481;SDS011;13395;50.752;4.268;2022-12-18T08:49:51;29.25;;;12.50;;
25481;SDS011;13395;50.752;4.268;2022-12-18T08:52:16;26.58;;;12.18;;
25481;SDS011;13395;50.752;4.268;2022-12-18T08:54:42;20.88;;;10.90;;
25481;SDS011;13395;50.752;4.268;2022-12-18T08:57:08;24.65;;;12.88;;
25481;SDS011;13395;50.752;4.268;2022-12-18T08:59:33;22.50;;;11.65;;
25481;SDS011;13395;50.752;4.268;2022-12-18T09:01:59;26.65;;;11.95;;
25481;SDS011;13395;50.752;4.268;2022-12-18T09:04:24;23.40;;;12.52;;
25481;SDS011;13395;50.752;4.268;2022-12-18T09:06:50;18.73;;;11.18;;
25481;SDS011;13395;50.752;4.268;2022-12-18T09:09:16;23.05;;;12.27;;
25481;SDS011;13395;50.752;4.268;2022-12-18T09:11:41;23.58;;;12.50;;
25481;SDS011;13395;50.752;4.268;2022-12-18T09:14:08;20.77;;;11.25;;
25481;SDS011;13395;50.752;4.268;2022-12-18T09:16:34;22.08;;;11.75;;
25481;SDS011;13395;50.752;4.268;2022-12-18T09:19:00;20.60;;;11.55;;
25481;SDS011;13395;50.752;4.268;2022-12-18T09:21:28;19.90;;;12.02;;
25481;SDS011;13395;50.752;4.268;2022-12-18T09:23:58;22.42;;;12.07;;
25481;SDS011;13395;50.752;4.268;2022-12-18T09:26:25;25.92;;;12.23;;
25481;SDS011;13395;50.752;4.268;2022-12-18T09:28:51;20.42;;;11.45;;
25481;SDS011;13395;50.752;4.268;2022-12-18T09:31:17;26.92;;;11.23;;
25481;SDS011;13395;50.752;4.268;2022-12-18T09:33:44;25.45;;;13.25;;
25481;SDS011;13395;50.752;4.268;2022-12-18T09:36:11;20.15;;;11.07;;
25481;SDS011;13395;50.752;4.268;2022-12-18T09:38:39;17.63;;;10.57;;
25481;SDS011;13395;50.752;4.268;2022-12-18T09:41:06;22.40;;;11.60;;
25481;SDS011;13395;50.752;4.268;2022-12-18T09:44:11;22.00;;;12.00;;
25481;SDS011;13395;50.752;4.268;2022-12-18T09:46:40;22.98;;;11.27;;
25481;SDS011;13395;50.752;4.268;2022-12-18T09:49:14;27.10;;;12.38;;
25481;SDS011;13395;50.752;4.268;2022-12-18T09:51:57;20.25;;;10.57;;
25481;SDS011;13395;50.752;4.268;2022-12-18T09:54:35;19.77;;;11.60;;
25481;SDS011;13395;50.752;4.268;2022-12-18T09:57:04;24.48;;;11.88;;
25481;SDS011;13395;50.752;4.268;2022-12-18T09:59:37;20.23;;;11.57;;
25481;SDS011;13395;50.752;4.268;2022-12-18T10:02:20;21.05;;;11.88;;
25481;SDS011;13395;50.752;4.268;2022-12-18T10:05:36;23.75;;;11.95;;
25481;SDS011;13395;50.752;4.268;2022-12-18T10:21:44;21.50;;;10.27;;
25481;SDS011;13395;50.752;4.268;2022-12-18T10:26:52;19.67;;;10.90;;
25481;SDS011;13395;50.752;4.268;2022-12-18T10:29:21;15.98;;;9.88;;
25481;SDS011;13395;50.752;4.268;2022-12-18T10:31:47;19.23;;;11.23;;
25481;SDS011;13395;50.752;4.268;2022-12-18T10:34:13;22.33;;;11.23;;
25481;SDS011;13395;50.752;4.268;2022-12-18T10:36:39;23.23;;;11.60;;
25481;SDS011;13395;50.752;4.268;2022-12-18T10:39:15;22.15;;;11.45;;
25481;SDS011;13395;50.752;4.268;2022-12-18T10:41:43;20.42;;;11.45;;
25481;SDS011;13395;50.752;4.268;2022-12-18T10:44:10;23.10;;;10.88;;
25481;SDS011;13395;50.752;4.268;2022-12-18T10:46:47;28.90;;;14.05;;
25481;SDS011;13395;50.752;4.268;2022-12-18T10:49:27;25.52;;;11.60;;
25481;SDS011;13395;50.752;4.268;2022-12-18T10:54:46;18.10;;;11.00;;
25481;SDS011;13395;50.752;4.268;2022-12-18T10:57:17;25.80;;;11.85;;
25481;SDS011;13395;50.752;4.268;2022-12-18T11:02:54;19.02;;;11.45;;
25481;SDS011;13395;50.752;4.268;2022-12-18T11:05:24;19.15;;;11.00;;
25481;SDS011;13395;50.752;4.268;2022-12-18T11:08:02;24.95;;;12.38;;
25481;SDS011;13395;50.752;4.268;2022-12-18T11:10:30;25.38;;;12.25;;
25481;SDS011;13395;50.752;4.268;2022-12-18T11:13:17;21.27;;;11.30;;
25481;SDS011;13395;50.752;4.268;2022-12-18T11:15:46;20.30;;;10.18;;
25481;SDS011;13395;50.752;4.268;2022-12-18T11:23:28;23.73;;;12.52;;
25481;SDS011;13395;50.752;4.268;2022-12-18T11:25:58;23.25;;;12.70;;
25481;SDS011;13395;50.752;4.268;2022-12-18T11:31:17;22.95;;;12.27;;
25481;SDS011;13395;50.752;4.268;2022-12-18T11:33:44;25.83;;;12.60;;
25481;SDS011;13395;50.752;4.268;2022-12-18T11:36:14;25.17;;;12.25;;
25481;SDS011;13395;50.752;4.268;2022-12-18T11:38:41;22.15;;;12.27;;
25481;SDS011;13395;50.752;4.268;2022-12-18T11:50:14;22.17;;;11.40;;
25481;SDS011;13395;50.752;4.268;2022-12-18T11:52:43;21.27;;;11.10;;
25481;SDS011;13395;50.752;4.268;2022-12-18T11:55:13;25.63;;;12.95;;
25481;SDS011;13395;50.752;4.268;2022-12-18T12:00:44;26.65;;;12.00;;
25481;SDS011;13395;50.752;4.268;2022-12-18T12:03:47;24.25;;;11.30;;
25481;SDS011;13395;50.752;4.268;2022-12-18T12:25:13;35.55;;;16.00;;
25481;SDS011;13395;50.752;4.268;2022-12-18T12:40:39;37.30;;;18.55;;
25481;SDS011;13395;50.752;4.268;2022-12-18T12:46:00;29.15;;;15.60;;
25481;SDS011;13395;50.752;4.268;2022-12-18T12:48:42;28.60;;;13.30;;
25481;SDS011;13395;50.752;4.268;2022-12-18T12:51:26;37.28;;;19.40;;
25481;SDS011;13395;50.752;4.268;2022-12-18T12:54:04;32.22;;;16.73;;
25481;SDS011;13395;50.752;4.268;2022-12-18T12:56:39;39.03;;;16.38;;
25481;SDS011;13395;50.752;4.268;2022-12-18T13:02:10;31.23;;;15.00;;
25481;SDS011;13395;50.752;4.268;2022-12-18T13:04:50;36.33;;;15.55;;
25481;SDS011;13395;50.752;4.268;2022-12-18T13:07:30;31.52;;;14.82;;
25481;SDS011;13395;50.752;4.268;2022-12-18T13:12:50;34.10;;;15.60;;
25481;SDS011;13395;50.752;4.268;2022-12-18T13:15:47;38.67;;;16.65;;
25481;SDS011;13395;50.752;4.268;2022-12-18T13:18:52;38.15;;;17.48;;
25481;SDS011;13395;50.752;4.268;2022-12-18T13:21:23;38.00;;;16.92;;
25481;SDS011;13395;50.752;4.268;2022-12-18T13:23:55;37.72;;;17.17;;
25481;SDS011;13395;50.752;4.268;2022-12-18T13:26:28;37.05;;;16.05;;
25481;SDS011;13395;50.752;4.268;2022-12-18T13:28:56;34.95;;;16.95;;
25481;SDS011;13395;50.752;4.268;2022-12-18T13:34:12;43.65;;;18.40;;
25481;SDS011;13395;50.752;4.268;2022-12-18T13:36:46;42.00;;;17.05;;
25481;SDS011;13395;50.752;4.268;2022-12-18T13:41:46;42.50;;;18.10;;
25481;SDS011;13395;50.752;4.268;2022-12-18T13:44:30;38.88;;;17.90;;
25481;SDS011;13395;50.752;4.268;2022-12-18T13:46:57;46.28;;;19.63;;
25481;SDS011;13395;50.752;4.268;2022-12-18T13:49:24;40.35;;;18.25;;
25481;SDS011;13395;50.752;4.268;2022-12-18T13:51:56;40.75;;;19.08;;
25481;SDS011;13395;50.752;4.268;2022-12-18T13:54:25;39.55;;;17.52;;
25481;SDS011;13395;50.752;4.268;2022-12-18T13:57:06;34.88;;;17.73;;
25481;SDS011;13395;50.752;4.268;2022-12-18T13:59:56;38.35;;;18.25;;
25481;SDS011;13395;50.752;4.268;2022-12-18T14:02:24;40.70;;;18.33;;
25481;SDS011;13395;50.752;4.268;2022-12-18T14:04:51;39.42;;;18.50;;
25481;SDS011;13395;50.752;4.268;2022-12-18T14:07:22;37.30;;;16.67;;
25481;SDS011;13395;50.752;4.268;2022-12-18T14:09:59;38.35;;;16.48;;
25481;SDS011;13395;50.752;4.268;2022-12-18T14:12:32;44.10;;;18.25;;
25481;SDS011;13395;50.752;4.268;2022-12-18T14:17:54;38.60;;;18.48;;
25481;SDS011;13395;50.752;4.268;2022-12-18T14:20:22;43.25;;;19.80;;
25481;SDS011;13395;50.752;4.268;2022-12-18T14:22:50;40.95;;;18.45;;
25481;SDS011;13395;50.752;4.268;2022-12-18T14:25:20;38.88;;;17.70;;
25481;SDS011;13395;50.752;4.268;2022-12-18T14:27:49;41.42;;;19.13;;
25481;SDS011;13395;50.752;4.268;2022-12-18T14:30:23;41.38;;;19.08;;
25481;SDS011;13395;50.752;4.268;2022-12-18T14:35:26;44.15;;;18.13;;
25481;SDS011;13395;50.752;4.268;2022-12-18T14:37:52;45.05;;;18.77;;
25481;SDS011;13395;50.752;4.268;2022-12-18T14:40:18;45.13;;;17.98;;
25481;SDS011;13395;50.752;4.268;2022-12-18T14:42:43;51.45;;;19.25;;
25481;SDS011;13395;50.752;4.268;2022-12-18T14:50:43;41.50;;;18.17;;
25481;SDS011;13395;50.752;4.268;2022-12-18T14:56:13;41.15;;;19.23;;
25481;SDS011;13395;50.752;4.268;2022-12-18T15:01:29;45.90;;;18.45;;
25481;SDS011;13395;50.752;4.268;2022-12-18T15:03:58;37.60;;;17.60;;
25481;SDS011;13395;50.752;4.268;2022-12-18T15:06:29;58.97;;;21.73;;
25481;SDS011;13395;50.752;4.268;2022-12-18T15:08:56;52.45;;;21.92;;
25481;SDS011;13395;50.752;4.268;2022-12-18T15:11:32;46.78;;;16.83;;
25481;SDS011;13395;50.752;4.268;2022-12-18T15:14:20;63.92;;;24.02;;
25481;SDS011;13395;50.752;4.268;2022-12-18T15:16:56;40.30;;;18.13;;
25481;SDS011;13395;50.752;4.268;2022-12-18T15:19:25;41.60;;;18.60;;
25481;SDS011;13395;50.752;4.268;2022-12-18T15:22:01;43.03;;;18.40;;
25481;SDS011;13395;50.752;4.268;2022-12-18T15:24:29;41.97;;;18.25;;
25481;SDS011;13395;50.752;4.268;2022-12-18T15:26:57;42.22;;;17.50;;
25481;SDS011;13395;50.752;4.268;2022-12-18T15:29:23;45.03;;;19.73;;
25481;SDS011;13395;50.752;4.268;2022-12-18T15:37:10;39.75;;;16.23;;
25481;SDS011;13395;50.752;4.268;2022-12-18T15:39:36;44.05;;;19.00;;
25481;SDS011;13395;50.752;4.268;2022-12-18T15:42:01;41.33;;;18.48;;
25481;SDS011;13395;50.752;4.268;2022-12-18T15:44:46;47.00;;;19.00;;
25481;SDS011;13395;50.752;4.268;2022-12-18T15:47:12;42.05;;;19.60;;
25481;SDS011;13395;50.752;4.268;2022-12-18T15:49:38;38.30;;;18.38;;
25481;SDS011;13395;50.752;4.268;2022-12-18T15:52:04;46.25;;;18.98;;
25481;SDS011;13395;50.752;4.268;2022-12-18T15:54:30;39.97;;;18.33;;
25481;SDS011;13395;50.752;4.268;2022-12-18T15:57:15;42.28;;;18.17;;
25481;SDS011;13395;50.752;4.268;2022-12-18T16:02:17;40.53;;;18.00;;
25481;SDS011;13395;50.752;4.268;2022-12-18T16:04:44;42.53;;;18.63;;
25481;SDS011;13395;50.752;4.268;2022-12-18T16:07:10;41.60;;;18.48;;
25481;SDS011;13395;50.752;4.268;2022-12-18T16:09:36;44.30;;;18.73;;
25481;SDS011;13395;50.752;4.268;2022-12-18T16:12:03;40.65;;;18.88;;
25481;SDS011;13395;50.752;4.268;2022-12-18T16:14:50;45.22;;;20.25;;
25481;SDS011;13395;50.752;4.268;2022-12-18T16:17:16;41.08;;;18.23;;
25481;SDS011;13395;50.752;4.268;2022-12-18T16:19:42;44.47;;;17.88;;
25481;SDS011;13395;50.752;4.268;2022-12-18T16:22:14;37.17;;;16.25;;
25481;SDS011;13395;50.752;4.268;2022-12-18T16:24:48;44.40;;;18.13;;
25481;SDS011;13395;50.752;4.268;2022-12-18T16:27:15;47.42;;;18.98;;
25481;SDS011;13395;50.752;4.268;2022-12-18T16:29:41;48.72;;;20.27;;
25481;SDS011;13395;50.752;4.268;2022-12-18T16:32:14;64.57;;;24.85;;
25481;SDS011;13395;50.752;4.268;2022-12-18T16:34:42;52.33;;;18.83;;
25481;SDS011;13395;50.752;4.268;2022-12-18T16:37:09;42.53;;;18.75;;
25481;SDS011;13395;50.752;4.268;2022-12-18T16:39:36;41.67;;;17.00;;
25481;SDS011;13395;50.752;4.268;2022-12-18T16:42:06;41.03;;;18.67;;
25481;SDS011;13395;50.752;4.268;2022-12-18T16:44:44;45.88;;;18.27;;
25481;SDS011;13395;50.752;4.268;2022-12-18T16:47:10;39.95;;;17.08;;
25481;SDS011;13395;50.752;4.268;2022-12-18T16:49:36;41.65;;;18.15;;
25481;SDS011;13395;50.752;4.268;2022-12-18T16:52:02;39.70;;;16.98;;
25481;SDS011;13395;50.752;4.268;2022-12-18T16:54:29;35.97;;;15.55;;
25481;SDS011;13395;50.752;4.268;2022-12-18T16:56:55;33.65;;;15.38;;
25481;SDS011;13395;50.752;4.268;2022-12-18T16:59:21;47.28;;;21.05;;
25481;SDS011;13395;50.752;4.268;2022-12-18T17:01:47;45.58;;;17.35;;
25481;SDS011;13395;50.752;4.268;2022-12-18T17:04:13;41.28;;;16.60;;